sensor_id;sensor_type;location;lat;lon;timestamp;pressure;altitude;pressure_sealevel;temperature;humidity
48862;BME280;34681;49.188;-0.374;2023-02-23T00:00:14;101268.16;;;8.97;64.37
48862;BME280;34681;49.188;-0.374;2023-02-23T00:02:47;101269.75;;;8.89;64.60
48862;BME280;34681;49.188;-0.374;2023-02-23T00:05:13;101274.09;;;8.91;64.46
48862;BME280;34681;49.188;-0.374;2023-02-23T00:07:41;101270.28;;;8.94;64.58
48862;BME280;34681;49.188;-0.374;2023-02-23T00:10:09;101278.94;;;8.88;64.63
48862;BME280;34681;49.188;-0.374;2023-02-23T00:12:36;101267.03;;;8.89;64.74
48862;BME280;34681;49.188;-0.374;2023-02-23T00:15:01;101274.34;;;8.88;64.87
48862;BME280;34681;49.188;-0.374;2023-02-23T00:17:27;101273.34;;;8.89;64.85
48862;BME280;34681;49.188;-0.374;2023-02-23T00:19:54;101268.03;;;8.88;64.77
48862;BME280;34681;49.188;-0.374;2023-02-23T00:22:19;101267.16;;;8.87;65.02
48862;BME280;34681;49.188;-0.374;2023-02-23T00:24:45;101266.03;;;8.90;64.89
48862;BME280;34681;49.188;-0.374;2023-02-23T00:27:12;101269.75;;;8.89;65.15
48862;BME280;34681;49.188;-0.374;2023-02-23T00:29:43;101264.81;;;8.94;65.33
48862;BME280;34681;49.188;-0.374;2023-02-23T00:32:08;101263.56;;;8.98;65.45
48862;BME280;34681;49.188;-0.374;2023-02-23T00:34:34;101263.22;;;9.03;65.08
48862;BME280;34681;49.188;-0.374;2023-02-23T00:37:00;101270.75;;;8.99;65.15
48862;BME280;34681;49.188;-0.374;2023-02-23T00:39:26;101262.31;;;8.91;65.22
48862;BME280;34681;49.188;-0.374;2023-02-23T00:41:54;101267.03;;;8.89;65.08
48862;BME280;34681;49.188;-0.374;2023-02-23T00:44:21;101259.06;;;8.75;65.41
48862;BME280;34681;49.188;-0.374;2023-02-23T00:46:49;101271.97;;;8.84;65.45
48862;BME280;34681;49.188;-0.374;2023-02-23T00:49:16;101269.13;;;8.85;65.32
48862;BME280;34681;49.188;-0.374;2023-02-23T00:51:42;101266.91;;;8.79;65.35
48862;BME280;34681;49.188;-0.374;2023-02-23T00:54:11;101262.94;;;8.83;65.15
48862;BME280;34681;49.188;-0.374;2023-02-23T00:56:37;101263.78;;;8.84;65.28
48862;BME280;34681;49.188;-0.374;2023-02-23T00:59:02;101266.16;;;8.77;65.43
48862;BME280;34681;49.188;-0.374;2023-02-23T01:01:28;101260.56;;;8.67;65.44
48862;BME280;34681;49.188;-0.374;2023-02-23T01:03:53;101269.00;;;8.76;65.40
48862;BME280;34681;49.188;-0.374;2023-02-23T01:06:19;101264.41;;;8.76;65.21
48862;BME280;34681;49.188;-0.374;2023-02-23T01:08:46;101264.06;;;8.69;65.32
48862;BME280;34681;49.188;-0.374;2023-02-23T01:11:20;101257.22;;;8.64;65.47
48862;BME280;34681;49.188;-0.374;2023-02-23T01:13:47;101262.28;;;8.68;65.67
48862;BME280;34681;49.188;-0.374;2023-02-23T01:16:18;101259.34;;;8.71;65.74
48862;BME280;34681;49.188;-0.374;2023-02-23T01:18:44;101260.19;;;8.72;65.34
48862;BME280;34681;49.188;-0.374;2023-02-23T01:21:18;101267.91;;;8.78;65.19
48862;BME280;34681;49.188;-0.374;2023-02-23T01:23:44;101256.72;;;8.70;65.39
48862;BME280;34681;49.188;-0.374;2023-02-23T01:26:18;101259.94;;;8.75;65.33
48862;BME280;34681;49.188;-0.374;2023-02-23T01:28:50;101255.47;;;8.74;65.55
48862;BME280;34681;49.188;-0.374;2023-02-23T01:31:15;101250.63;;;8.66;65.38
48862;BME280;34681;49.188;-0.374;2023-02-23T01:33:41;101251.03;;;8.73;65.61
48862;BME280;34681;49.188;-0.374;2023-02-23T01:36:06;101253.75;;;8.73;65.12
48862;BME280;34681;49.188;-0.374;2023-02-23T01:38:32;101248.28;;;8.73;65.17
48862;BME280;34681;49.188;-0.374;2023-02-23T01:40:57;101245.44;;;8.63;65.84
48862;BME280;34681;49.188;-0.374;2023-02-23T01:43:23;101247.69;;;8.69;65.51
48862;BME280;34681;49.188;-0.374;2023-02-23T01:45:55;101239.50;;;8.69;65.61
48862;BME280;34681;49.188;-0.374;2023-02-23T01:48:26;101235.25;;;8.65;65.85
48862;BME280;34681;49.188;-0.374;2023-02-23T01:51:10;101223.22;;;8.68;65.59
48862;BME280;34681;49.188;-0.374;2023-02-23T01:53:40;101233.41;;;8.66;65.65
48862;BME280;34681;49.188;-0.374;2023-02-23T01:56:10;101236.38;;;8.63;65.97
48862;BME280;34681;49.188;-0.374;2023-02-23T01:58:41;101233.19;;;8.69;65.48
48862;BME280;34681;49.188;-0.374;2023-02-23T02:01:10;101235.25;;;8.65;65.82
48862;BME280;34681;49.188;-0.374;2023-02-23T02:03:43;101244.31;;;8.66;65.61
48862;BME280;34681;49.188;-0.374;2023-02-23T02:06:12;101241.84;;;8.63;65.52
48862;BME280;34681;49.188;-0.374;2023-02-23T02:08:42;101241.44;;;8.56;65.72
48862;BME280;34681;49.188;-0.374;2023-02-23T02:11:11;101245.41;;;8.52;65.59
48862;BME280;34681;49.188;-0.374;2023-02-23T02:13:52;101241.44;;;8.56;65.37
48862;BME280;34681;49.188;-0.374;2023-02-23T02:27:45;101249.66;;;8.32;65.59
48862;BME280;34681;49.188;-0.374;2023-02-23T02:41:42;101252.88;;;8.26;66.17
48862;BME280;34681;49.188;-0.374;2023-02-23T02:44:29;101251.31;;;8.35;66.33
48862;BME280;34681;49.188;-0.374;2023-02-23T02:47:19;101239.31;;;8.37;66.35
48862;BME280;34681;49.188;-0.374;2023-02-23T02:49:58;101216.50;;;8.38;66.56
48862;BME280;34681;49.188;-0.374;2023-02-23T02:52:56;101221.84;;;8.40;66.57
48862;BME280;34681;49.188;-0.374;2023-02-23T02:55:28;101218.38;;;8.38;66.25
48862;BME280;34681;49.188;-0.374;2023-02-23T02:57:58;101203.75;;;8.39;66.38
48862;BME280;34681;49.188;-0.374;2023-02-23T03:00:31;101200.53;;;8.45;66.52
48862;BME280;34681;49.188;-0.374;2023-02-23T03:03:31;101210.31;;;8.48;66.01
48862;BME280;34681;49.188;-0.374;2023-02-23T03:06:18;101208.59;;;8.47;65.84
48862;BME280;34681;49.188;-0.374;2023-02-23T03:12:12;101208.91;;;8.31;65.77
48862;BME280;34681;49.188;-0.374;2023-02-23T03:15:18;101212.63;;;8.30;65.67
48862;BME280;34681;49.188;-0.374;2023-02-23T03:18:26;101204.31;;;8.31;65.35
48862;BME280;34681;49.188;-0.374;2023-02-23T03:21:24;101207.91;;;8.21;65.80
48862;BME280;34681;49.188;-0.374;2023-02-23T03:27:41;101210.72;;;8.19;65.61
48862;BME280;34681;49.188;-0.374;2023-02-23T03:30:38;101212.56;;;8.18;65.52
48862;BME280;34681;49.188;-0.374;2023-02-23T03:33:43;101213.56;;;8.17;65.68
48862;BME280;34681;49.188;-0.374;2023-02-23T03:36:32;101219.63;;;8.10;65.80
48862;BME280;34681;49.188;-0.374;2023-02-23T03:39:39;101220.59;;;8.09;65.95
48862;BME280;34681;49.188;-0.374;2023-02-23T03:42:27;101219.13;;;8.05;65.87
48862;BME280;34681;49.188;-0.374;2023-02-23T03:45:17;101228.16;;;8.05;65.90
48862;BME280;34681;49.188;-0.374;2023-02-23T03:48:05;101238.81;;;8.08;65.63
48862;BME280;34681;49.188;-0.374;2023-02-23T03:50:53;101236.47;;;8.04;65.80
48862;BME280;34681;49.188;-0.374;2023-02-23T03:56:45;101235.19;;;7.97;65.94
48862;BME280;34681;49.188;-0.374;2023-02-23T03:59:35;101241.25;;;8.00;65.58
48862;BME280;34681;49.188;-0.374;2023-02-23T04:02:21;101253.41;;;7.96;65.66
48862;BME280;34681;49.188;-0.374;2023-02-23T04:05:15;101256.47;;;7.92;65.80
48862;BME280;34681;49.188;-0.374;2023-02-23T04:08:02;101257.59;;;7.89;65.96
48862;BME280;34681;49.188;-0.374;2023-02-23T04:10:53;101265.72;;;7.78;66.30
48862;BME280;34681;49.188;-0.374;2023-02-23T04:13:43;101258.78;;;7.85;65.79
48862;BME280;34681;49.188;-0.374;2023-02-23T04:16:10;101247.66;;;7.88;65.82
48862;BME280;34681;49.188;-0.374;2023-02-23T04:18:38;101254.09;;;7.87;65.54
48862;BME280;34681;49.188;-0.374;2023-02-23T04:21:05;101249.00;;;7.82;65.75
48862;BME280;34681;49.188;-0.374;2023-02-23T04:23:31;101260.88;;;7.81;65.45
48862;BME280;34681;49.188;-0.374;2023-02-23T04:25:57;101260.88;;;7.81;65.58
48862;BME280;34681;49.188;-0.374;2023-02-23T04:28:24;101248.72;;;7.74;65.50
48862;BME280;34681;49.188;-0.374;2023-02-23T04:30:50;101256.03;;;7.74;65.69
48862;BME280;34681;49.188;-0.374;2023-02-23T04:33:17;101248.72;;;7.74;65.84
48862;BME280;34681;49.188;-0.374;2023-02-23T04:35:42;101245.00;;;7.75;65.70
48862;BME280;34681;49.188;-0.374;2023-02-23T04:38:08;101238.81;;;7.73;65.78
48862;BME280;34681;49.188;-0.374;2023-02-23T04:40:33;101230.97;;;7.69;65.80
48862;BME280;34681;49.188;-0.374;2023-02-23T04:42:59;101230.97;;;7.69;65.71
48862;BME280;34681;49.188;-0.374;2023-02-23T04:45:25;101232.94;;;7.67;65.80
48862;BME280;34681;49.188;-0.374;2023-02-23T04:47:51;101232.44;;;7.62;65.91
48862;BME280;34681;49.188;-0.374;2023-02-23T04:50:17;101232.06;;;7.66;65.64
48862;BME280;34681;49.188;-0.374;2023-02-23T04:52:43;101247.88;;;7.61;65.87
48862;BME280;34681;49.188;-0.374;2023-02-23T04:55:16;101246.69;;;7.65;65.88
48862;BME280;34681;49.188;-0.374;2023-02-23T04:57:41;101237.00;;;7.61;65.58
48862;BME280;34681;49.188;-0.374;2023-02-23T05:00:07;101245.41;;;7.58;66.02
48862;BME280;34681;49.188;-0.374;2023-02-23T05:02:33;101264.47;;;7.58;65.87
48862;BME280;34681;49.188;-0.374;2023-02-23T05:04:58;101251.72;;;7.58;65.72
48862;BME280;34681;49.188;-0.374;2023-02-23T05:07:24;101246.63;;;7.54;65.80
48862;BME280;34681;49.188;-0.374;2023-02-23T05:09:49;101245.78;;;7.53;65.81
48862;BME280;34681;49.188;-0.374;2023-02-23T05:12:15;101244.78;;;7.54;65.69
48862;BME280;34681;49.188;-0.374;2023-02-23T05:14:40;101238.38;;;7.43;66.22
48862;BME280;34681;49.188;-0.374;2023-02-23T05:17:06;101237.31;;;7.45;66.04
48862;BME280;34681;49.188;-0.374;2023-02-23T05:19:32;101239.38;;;7.42;66.29
48862;BME280;34681;49.188;-0.374;2023-02-23T05:21:57;101245.97;;;7.50;66.02
48862;BME280;34681;49.188;-0.374;2023-02-23T05:24:23;101246.31;;;7.22;66.68
48862;BME280;34681;49.188;-0.374;2023-02-23T05:26:50;101244.88;;;7.29;66.74
48862;BME280;34681;49.188;-0.374;2023-02-23T05:29:15;101245.56;;;7.44;66.27
48862;BME280;34681;49.188;-0.374;2023-02-23T05:31:41;101246.44;;;7.44;65.90
48862;BME280;34681;49.188;-0.374;2023-02-23T05:34:06;101240.59;;;7.38;66.24
48862;BME280;34681;49.188;-0.374;2023-02-23T05:36:32;101242.34;;;7.39;65.97
48862;BME280;34681;49.188;-0.374;2023-02-23T05:38:57;101240.94;;;7.33;66.10
48862;BME280;34681;49.188;-0.374;2023-02-23T05:41:23;101247.47;;;7.30;65.83
48862;BME280;34681;49.188;-0.374;2023-02-23T05:43:49;101251.06;;;7.31;66.29
48862;BME280;34681;49.188;-0.374;2023-02-23T05:46:25;101248.34;;;7.31;66.04
48862;BME280;34681;49.188;-0.374;2023-02-23T05:48:55;101253.03;;;7.29;66.23
48862;BME280;34681;49.188;-0.374;2023-02-23T05:51:21;101243.47;;;7.23;66.30
48862;BME280;34681;49.188;-0.374;2023-02-23T05:53:46;101234.06;;;7.27;66.07
48862;BME280;34681;49.188;-0.374;2023-02-23T05:56:14;101248.47;;;7.29;65.88
48862;BME280;34681;49.188;-0.374;2023-02-23T05:58:51;101256.84;;;7.26;66.34
48862;BME280;34681;49.188;-0.374;2023-02-23T06:01:18;101267.41;;;7.18;66.12
48862;BME280;34681;49.188;-0.374;2023-02-23T06:03:44;101256.47;;;7.07;66.68
48862;BME280;34681;49.188;-0.374;2023-02-23T06:06:10;101259.94;;;7.09;66.65
48862;BME280;34681;49.188;-0.374;2023-02-23T06:08:36;101258.25;;;7.19;65.98
48862;BME280;34681;49.188;-0.374;2023-02-23T06:11:02;101266.53;;;7.18;66.04
48862;BME280;34681;49.188;-0.374;2023-02-23T06:13:28;101259.81;;;7.11;66.49
48862;BME280;34681;49.188;-0.374;2023-02-23T06:15:53;101264.94;;;7.15;66.34
48862;BME280;34681;49.188;-0.374;2023-02-23T06:18:19;101269.38;;;7.16;65.86
48862;BME280;34681;49.188;-0.374;2023-02-23T06:20:45;101275.69;;;7.17;66.03
48862;BME280;34681;49.188;-0.374;2023-02-23T06:23:10;101276.06;;;7.12;66.25
48862;BME280;34681;49.188;-0.374;2023-02-23T06:25:36;101283.00;;;7.16;66.06
48862;BME280;34681;49.188;-0.374;2023-02-23T06:28:01;101294.56;;;7.07;66.17
48862;BME280;34681;49.188;-0.374;2023-02-23T06:30:27;101303.69;;;7.06;66.40
48862;BME280;34681;49.188;-0.374;2023-02-23T06:32:52;101290.97;;;7.07;66.44
48862;BME280;34681;49.188;-0.374;2023-02-23T06:35:18;101286.94;;;7.12;65.80
48862;BME280;34681;49.188;-0.374;2023-02-23T06:37:43;101284.53;;;7.08;66.20
48862;BME280;34681;49.188;-0.374;2023-02-23T06:40:09;101281.38;;;7.14;65.80
48862;BME280;34681;49.188;-0.374;2023-02-23T06:42:35;101271.78;;;7.08;65.78
48862;BME280;34681;49.188;-0.374;2023-02-23T06:45:01;101265.06;;;7.01;66.08
48862;BME280;34681;49.188;-0.374;2023-02-23T06:47:27;101262.75;;;7.08;65.96
48862;BME280;34681;49.188;-0.374;2023-02-23T06:49:52;101259.50;;;7.02;65.65
48862;BME280;34681;49.188;-0.374;2023-02-23T06:52:18;101253.53;;;6.97;65.92
48862;BME280;34681;49.188;-0.374;2023-02-23T06:54:44;101259.50;;;7.02;65.83
48862;BME280;34681;49.188;-0.374;2023-02-23T06:57:10;101253.66;;;6.96;66.27
48862;BME280;34681;49.188;-0.374;2023-02-23T06:59:35;101257.00;;;6.99;66.07
48862;BME280;34681;49.188;-0.374;2023-02-23T07:02:02;101256.16;;;6.99;66.19
48862;BME280;34681;49.188;-0.374;2023-02-23T07:04:30;101256.78;;;7.02;66.08
48862;BME280;34681;49.188;-0.374;2023-02-23T07:06:56;101258.19;;;7.08;65.83
48862;BME280;34681;49.188;-0.374;2023-02-23T07:09:21;101263.88;;;7.05;65.81
48862;BME280;34681;49.188;-0.374;2023-02-23T07:11:46;101266.03;;;7.13;65.55
48862;BME280;34681;49.188;-0.374;2023-02-23T07:14:12;101274.19;;;7.13;65.78
48862;BME280;34681;49.188;-0.374;2023-02-23T07:16:38;101268.84;;;7.11;66.36
48862;BME280;34681;49.188;-0.374;2023-02-23T07:19:04;101273.09;;;7.15;66.17
48862;BME280;34681;49.188;-0.374;2023-02-23T07:21:31;101279.16;;;7.19;66.31
48862;BME280;34681;49.188;-0.374;2023-02-23T07:23:57;101295.94;;;7.25;66.42
48862;BME280;34681;49.188;-0.374;2023-02-23T07:26:23;101297.84;;;7.36;66.01
48862;BME280;34681;49.188;-0.374;2023-02-23T07:28:49;101309.53;;;7.38;66.15
48862;BME280;34681;49.188;-0.374;2023-02-23T07:31:14;101311.91;;;7.43;66.08
48862;BME280;34681;49.188;-0.374;2023-02-23T07:33:40;101311.22;;;7.52;66.00
48862;BME280;34681;49.188;-0.374;2023-02-23T07:36:05;101302.72;;;7.56;66.22
48862;BME280;34681;49.188;-0.374;2023-02-23T07:38:31;101307.16;;;7.70;65.96
48862;BME280;34681;49.188;-0.374;2023-02-23T07:40:57;101311.31;;;7.87;65.45
48862;BME280;34681;49.188;-0.374;2023-02-23T07:43:22;101306.25;;;7.94;65.32
48862;BME280;34681;49.188;-0.374;2023-02-23T07:45:48;101309.28;;;8.02;65.42
48862;BME280;34681;49.188;-0.374;2023-02-23T07:48:15;101310.97;;;8.15;64.84
48862;BME280;34681;49.188;-0.374;2023-02-23T07:50:40;101313.34;;;8.20;64.90
48862;BME280;34681;49.188;-0.374;2023-02-23T07:53:06;101322.31;;;8.33;64.37
48862;BME280;34681;49.188;-0.374;2023-02-23T07:55:32;101319.25;;;8.38;64.47
48862;BME280;34681;49.188;-0.374;2023-02-23T07:57:57;101302.78;;;8.39;64.52
48862;BME280;34681;49.188;-0.374;2023-02-23T08:00:23;101306.66;;;8.48;64.91
48862;BME280;34681;49.188;-0.374;2023-02-23T08:02:50;101309.91;;;8.53;64.32
48862;BME280;34681;49.188;-0.374;2023-02-23T08:05:17;101317.63;;;8.70;64.13
48862;BME280;34681;49.188;-0.374;2023-02-23T08:07:43;101321.09;;;8.84;64.16
48862;BME280;34681;49.188;-0.374;2023-02-23T08:10:10;101338.59;;;8.92;64.21
48862;BME280;34681;49.188;-0.374;2023-02-23T08:12:35;101332.31;;;9.03;63.59
48862;BME280;34681;49.188;-0.374;2023-02-23T08:15:01;101331.44;;;9.03;63.46
48862;BME280;34681;49.188;-0.374;2023-02-23T08:17:27;101338.13;;;9.10;63.44
48862;BME280;34681;49.188;-0.374;2023-02-23T08:19:52;101338.28;;;9.19;62.90
48862;BME280;34681;49.188;-0.374;2023-02-23T08:22:18;101337.63;;;9.16;63.19
48862;BME280;34681;49.188;-0.374;2023-02-23T08:24:43;101350.56;;;9.14;63.96
48862;BME280;34681;49.188;-0.374;2023-02-23T08:27:08;101352.91;;;9.18;63.76
48862;BME280;34681;49.188;-0.374;2023-02-23T08:29:34;101349.56;;;9.26;63.06
48862;BME280;34681;49.188;-0.374;2023-02-23T08:32:03;101346.94;;;9.24;63.39
48862;BME280;34681;49.188;-0.374;2023-02-23T08:34:28;101347.94;;;9.23;63.00
48862;BME280;34681;49.188;-0.374;2023-02-23T08:36:54;101350.31;;;9.28;62.10
48862;BME280;34681;49.188;-0.374;2023-02-23T08:39:20;101343.47;;;9.22;62.45
48862;BME280;34681;49.188;-0.374;2023-02-23T08:41:45;101344.34;;;9.23;62.46
48862;BME280;34681;49.188;-0.374;2023-02-23T08:44:11;101350.31;;;9.39;62.61
48862;BME280;34681;49.188;-0.374;2023-02-23T08:46:36;101335.75;;;9.72;62.90
48862;BME280;34681;49.188;-0.374;2023-02-23T08:49:02;101345.88;;;10.04;62.25
48862;BME280;34681;49.188;-0.374;2023-02-23T08:51:28;101335.97;;;10.35;61.72
48862;BME280;34681;49.188;-0.374;2023-02-23T08:53:54;101331.53;;;10.55;61.55
48862;BME280;34681;49.188;-0.374;2023-02-23T08:56:21;101322.31;;;10.77;60.29
48862;BME280;34681;49.188;-0.374;2023-02-23T08:58:49;101325.50;;;10.82;60.32
48862;BME280;34681;49.188;-0.374;2023-02-23T09:01:18;101323.78;;;10.81;60.12
48862;BME280;34681;49.188;-0.374;2023-02-23T09:03:45;101323.84;;;10.69;60.93
48862;BME280;34681;49.188;-0.374;2023-02-23T09:06:13;101326.13;;;10.64;60.88
48862;BME280;34681;49.188;-0.374;2023-02-23T09:08:40;101329.28;;;10.60;61.09
48862;BME280;34681;49.188;-0.374;2023-02-23T09:11:05;101332.72;;;10.62;60.63
48862;BME280;34681;49.188;-0.374;2023-02-23T09:13:31;101344.19;;;10.56;60.71
48862;BME280;34681;49.188;-0.374;2023-02-23T09:15:56;101354.28;;;10.23;61.57
48862;BME280;34681;49.188;-0.374;2023-02-23T09:18:22;101350.31;;;10.27;62.05
48862;BME280;34681;49.188;-0.374;2023-02-23T09:20:52;101358.63;;;10.26;62.30
48862;BME280;34681;49.188;-0.374;2023-02-23T09:23:17;101358.00;;;10.54;61.96
48862;BME280;34681;49.188;-0.374;2023-02-23T09:25:43;101356.88;;;10.57;62.23
48862;BME280;34681;49.188;-0.374;2023-02-23T09:28:18;101359.81;;;10.65;62.25
48862;BME280;34681;49.188;-0.374;2023-02-23T09:30:44;101359.16;;;10.73;62.02
48862;BME280;34681;49.188;-0.374;2023-02-23T09:33:11;101366.13;;;10.77;61.72
48862;BME280;34681;49.188;-0.374;2023-02-23T09:35:37;101375.59;;;10.73;61.97
48862;BME280;34681;49.188;-0.374;2023-02-23T09:38:04;101375.06;;;10.79;61.65
48862;BME280;34681;49.188;-0.374;2023-02-23T09:40:42;101372.97;;;10.92;61.07
48862;BME280;34681;49.188;-0.374;2023-02-23T09:43:15;101376.13;;;10.87;61.41
48862;BME280;34681;49.188;-0.374;2023-02-23T09:45:48;101386.81;;;10.90;61.58
48862;BME280;34681;49.188;-0.374;2023-02-23T09:48:21;101384.88;;;11.02;60.60
48862;BME280;34681;49.188;-0.374;2023-02-23T09:50:51;101381.94;;;10.94;60.87
48862;BME280;34681;49.188;-0.374;2023-02-23T09:56:29;101381.13;;;10.82;61.20
48862;BME280;34681;49.188;-0.374;2023-02-23T09:58:58;101385.22;;;10.88;61.08
48862;BME280;34681;49.188;-0.374;2023-02-23T10:04:30;101379.50;;;11.21;60.81
48862;BME280;34681;49.188;-0.374;2023-02-23T10:07:05;101377.28;;;11.67;60.20
48862;BME280;34681;49.188;-0.374;2023-02-23T10:12:14;101378.03;;;12.09;59.07
48862;BME280;34681;49.188;-0.374;2023-02-23T10:22:54;101384.63;;;11.97;59.86
48862;BME280;34681;49.188;-0.374;2023-02-23T10:25:26;101388.25;;;12.07;59.44
48862;BME280;34681;49.188;-0.374;2023-02-23T10:27:54;101400.94;;;12.08;60.12
48862;BME280;34681;49.188;-0.374;2023-02-23T10:30:22;101401.16;;;12.26;59.94
48862;BME280;34681;49.188;-0.374;2023-02-23T10:32:49;101399.00;;;12.49;59.31
48862;BME280;34681;49.188;-0.374;2023-02-23T10:35:19;101395.69;;;12.64;58.96
48862;BME280;34681;49.188;-0.374;2023-02-23T10:37:49;101391.34;;;12.72;59.11
48862;BME280;34681;49.188;-0.374;2023-02-23T10:40:18;101394.97;;;12.72;59.39
48862;BME280;34681;49.188;-0.374;2023-02-23T10:42:45;101396.28;;;12.78;59.77
48862;BME280;34681;49.188;-0.374;2023-02-23T10:45:19;101391.59;;;12.20;61.38
48862;BME280;34681;49.188;-0.374;2023-02-23T10:47:56;101390.31;;;12.24;61.97
48862;BME280;34681;49.188;-0.374;2023-02-23T10:50:23;101398.28;;;12.47;61.41
48862;BME280;34681;49.188;-0.374;2023-02-23T10:52:54;101400.59;;;12.42;61.63
48862;BME280;34681;49.188;-0.374;2023-02-23T10:55:26;101393.81;;;12.55;61.59
48862;BME280;34681;49.188;-0.374;2023-02-23T10:58:13;101402.00;;;11.76;62.87
48862;BME280;34681;49.188;-0.374;2023-02-23T11:03:31;101412.56;;;11.30;65.33
48862;BME280;34681;49.188;-0.374;2023-02-23T11:05:56;101395.22;;;10.98;65.69
48862;BME280;34681;49.188;-0.374;2023-02-23T11:08:30;101400.28;;;10.82;66.85
48862;BME280;34681;49.188;-0.374;2023-02-23T11:13:46;101394.47;;;10.55;68.00
48862;BME280;34681;49.188;-0.374;2023-02-23T11:16:16;101400.53;;;10.58;68.01
48862;BME280;34681;49.188;-0.374;2023-02-23T11:21:22;101383.50;;;10.23;69.17
48862;BME280;34681;49.188;-0.374;2023-02-23T11:23:51;101381.50;;;10.25;69.59
48862;BME280;34681;49.188;-0.374;2023-02-23T11:26:27;101374.81;;;10.06;69.98
48862;BME280;34681;49.188;-0.374;2023-02-23T11:28:59;101385.09;;;10.25;69.90
48862;BME280;34681;49.188;-0.374;2023-02-23T11:31:32;101392.22;;;10.49;68.94
48862;BME280;34681;49.188;-0.374;2023-02-23T11:34:01;101394.09;;;10.48;68.87
48862;BME280;34681;49.188;-0.374;2023-02-23T11:36:33;101406.00;;;10.26;69.66
48862;BME280;34681;49.188;-0.374;2023-02-23T11:39:04;101393.09;;;10.06;70.94
48862;BME280;34681;49.188;-0.374;2023-02-23T11:41:30;101384.75;;;10.19;69.87
48862;BME280;34681;49.188;-0.374;2023-02-23T11:44:00;101405.53;;;10.10;69.90
48862;BME280;34681;49.188;-0.374;2023-02-23T11:46:28;101401.50;;;10.25;69.14
48862;BME280;34681;49.188;-0.374;2023-02-23T11:51:35;101416.41;;;10.96;67.77
48862;BME280;34681;49.188;-0.374;2023-02-23T11:54:02;101413.53;;;11.19;67.01
48862;BME280;34681;49.188;-0.374;2023-02-23T11:56:30;101405.78;;;11.03;67.18
48862;BME280;34681;49.188;-0.374;2023-02-23T11:59:03;101403.97;;;10.72;67.01
48862;BME280;34681;49.188;-0.374;2023-02-23T12:01:49;101403.47;;;10.66;67.42
48862;BME280;34681;49.188;-0.374;2023-02-23T12:04:30;101398.25;;;10.95;66.71
48862;BME280;34681;49.188;-0.374;2023-02-23T12:10:20;101407.44;;;10.41;67.79
48862;BME280;34681;49.188;-0.374;2023-02-23T12:12:59;101410.31;;;10.40;68.44
48862;BME280;34681;49.188;-0.374;2023-02-23T12:17:57;101402.28;;;10.27;68.54
48862;BME280;34681;49.188;-0.374;2023-02-23T12:20:28;101399.00;;;10.33;68.54
48862;BME280;34681;49.188;-0.374;2023-02-23T12:23:06;101393.75;;;10.41;68.72
48862;BME280;34681;49.188;-0.374;2023-02-23T12:25:39;101377.88;;;10.67;67.74
48862;BME280;34681;49.188;-0.374;2023-02-23T12:28:30;101382.38;;;10.57;67.84
48862;BME280;34681;49.188;-0.374;2023-02-23T12:31:36;101376.09;;;10.46;67.48
48862;BME280;34681;49.188;-0.374;2023-02-23T12:34:23;101364.78;;;10.39;68.54
48862;BME280;34681;49.188;-0.374;2023-02-23T12:37:19;101355.22;;;10.33;68.27
48862;BME280;34681;49.188;-0.374;2023-02-23T12:39:56;101347.44;;;10.29;68.47
48862;BME280;34681;49.188;-0.374;2023-02-23T12:44:59;101351.13;;;10.39;68.03
48862;BME280;34681;49.188;-0.374;2023-02-23T12:47:54;101362.75;;;10.52;67.98
48862;BME280;34681;49.188;-0.374;2023-02-23T12:50:34;101351.59;;;10.65;68.08
48862;BME280;34681;49.188;-0.374;2023-02-23T12:56:01;101347.31;;;11.14;67.27
48862;BME280;34681;49.188;-0.374;2023-02-23T12:58:34;101338.47;;;11.01;66.83
48862;BME280;34681;49.188;-0.374;2023-02-23T13:01:38;101340.59;;;10.97;66.77
48862;BME280;34681;49.188;-0.374;2023-02-23T13:15:58;101334.53;;;10.73;67.51
48862;BME280;34681;49.188;-0.374;2023-02-23T13:18:40;101335.97;;;10.97;67.71
48862;BME280;34681;49.188;-0.374;2023-02-23T13:21:22;101342.59;;;10.74;68.42
48862;BME280;34681;49.188;-0.374;2023-02-23T13:24:16;101337.31;;;10.82;68.52
48862;BME280;34681;49.188;-0.374;2023-02-23T13:27:00;101341.22;;;11.31;67.55
48862;BME280;34681;49.188;-0.374;2023-02-23T13:29:38;101341.72;;;11.46;66.64
48862;BME280;34681;49.188;-0.374;2023-02-23T13:32:15;101335.34;;;11.15;67.47
48862;BME280;34681;49.188;-0.374;2023-02-23T13:34:44;101343.38;;;11.07;67.85
48862;BME280;34681;49.188;-0.374;2023-02-23T13:37:16;101333.34;;;10.86;68.70
48862;BME280;34681;49.188;-0.374;2023-02-23T13:48:48;101354.22;;;11.39;66.53
48862;BME280;34681;49.188;-0.374;2023-02-23T13:54:04;101345.63;;;10.71;68.91
48862;BME280;34681;49.188;-0.374;2023-02-23T13:56:35;101329.06;;;10.73;69.74
48862;BME280;34681;49.188;-0.374;2023-02-23T13:59:08;101325.50;;;10.82;68.40
48862;BME280;34681;49.188;-0.374;2023-02-23T14:01:39;101333.25;;;10.56;68.61
48862;BME280;34681;49.188;-0.374;2023-02-23T14:04:34;101323.00;;;10.69;68.44
48862;BME280;34681;49.188;-0.374;2023-02-23T14:07:03;101323.25;;;10.66;68.83
48862;BME280;34681;49.188;-0.374;2023-02-23T14:09:41;101334.19;;;10.66;69.59
48862;BME280;34681;49.188;-0.374;2023-02-23T14:14:39;101338.41;;;10.70;69.99
48862;BME280;34681;49.188;-0.374;2023-02-23T14:22:20;101316.22;;;10.94;69.48
48862;BME280;34681;49.188;-0.374;2023-02-23T14:28:02;101332.38;;;10.97;69.14
48862;BME280;34681;49.188;-0.374;2023-02-23T14:33:47;101331.31;;;10.88;69.16
48862;BME280;34681;49.188;-0.374;2023-02-23T14:38:49;101327.19;;;10.94;69.28
48862;BME280;34681;49.188;-0.374;2023-02-23T14:41:20;101331.94;;;10.71;70.34
48862;BME280;34681;49.188;-0.374;2023-02-23T14:43:50;101324.06;;;10.78;70.45
48862;BME280;34681;49.188;-0.374;2023-02-23T14:46:20;101332.44;;;11.07;69.26
48862;BME280;34681;49.188;-0.374;2023-02-23T14:51:46;101322.03;;;11.01;69.25
48862;BME280;34681;49.188;-0.374;2023-02-23T14:56:52;101322.59;;;10.53;69.42
48862;BME280;34681;49.188;-0.374;2023-02-23T14:59:24;101322.16;;;10.36;70.51
48862;BME280;34681;49.188;-0.374;2023-02-23T15:01:53;101317.44;;;10.38;70.83